Terminal Aerodrome Forecast
Issued by NWS Tampa Bay Area, FL

Home | Current Version | Previous Version | Text Only | Print | Product List | Glossary On
Versions: 1 2 3 4 5 6 7 8 9 10 11 12 13
000
FTUS42 KTBW 030540
TAFFMY
TAF
KFMY 030540Z 0306/0406 15005KT P6SM FEW025 BKN250
     FM030800 18004KT P6SM VCSH SCT025 BKN250
     FM031500 23008KT P6SM VCSH SCT025 SCT050 OVC150
     FM031800 25012G18KT P6SM VCTS SCT025CB BKN050 OVC100
     FM040200 25005KT P6SM FEW025 SCT100 BKN250=

USA.gov is the U.S. government's official web portal to all federal, state and local government web resources and services.